Terminal Aerodrome Forecast
Issued by NWS

Home | Current Version | Previous Version | Text Only | Print | Product List | Glossary On
Versions: 1 2 3 4 5 6 7 8 9 10 11 12 13
000
FTUS44 KLZK 311100
TAFPBF
TAF
KPBF 311138Z 3112/0112 07004KT P6SM OVC120
     FM311800 13008KT P6SM OVC100
     FM010600 16010KT P6SM OVC040 WS020/20040KT
      TEMPO 0109/0112 5SM -SHRA BR OVC025=

USA.gov is the U.S. government's official web portal to all federal, state and local government web resources and services.